Molokai Airport Kaunakakai US
ICAO: PHMK
IATA:
Category: Medium
Scheduled Services:

Elevation: 454 ft
TransAlt. 18000 ft.

Airport Communications:
ATIS:128.2
HONOLULU CNTR:124.1
CTAF:125.7
GND:121.9
HONOLULU RDO:116.1
TWR:125.7

PHMK Zoom In..

If you have problems with the map follow the link
https://www.worldairports.se/pages/airport.php?
ICAO=PHMK

Runways:

(A) RW 05 length 4494 ft width 100 ft
---- / hdg 49

(B) RW 17 length 3118 ft width 100 ft
---- / hdg 169

(C) RW 23 length 4494 ft width 100 ft
---- / hdg 229

(D) RW 35 length 3118 ft width 100 ft
---- / hdg 349

Location; PHMK
Day. 16 / Time. 10.54 Zulu
* Altimeter: 29.99
* Temperature: 23° c. 73.4°f.
* Wind from: 060° Speed 06 kn.
Dewpoint: 21° c.
Visibility: 10 Statute Miles.
Clouds: Clear (automated report).

PHMK 161054Z AUTO 06006KT 10SM CLR 23/21 A2999 RMK AO2 RAE02 SLP158 P0000 T02330206 TSNO


Wind From 060°
Speed 06 kn.

 
 
jpsmedia.com for Web Design worldairports.se 2018   terms of use